createdAt,value
2022-10-05T00:00:00.276Z,5.50
2022-10-05T00:05:22.085Z,5.70
2022-10-05T00:10:25.011Z,5.70
2022-10-05T00:15:27.812Z,6.20
2022-10-05T00:20:30.552Z,6.60
2022-10-05T00:25:33.278Z,6.10
2022-10-05T00:30:36.059Z,5.20
2022-10-05T00:35:40.041Z,5.70
2022-10-05T00:41:07.072Z,6.50
2022-10-05T00:46:22.764Z,6.00
2022-10-05T00:51:29.341Z,5.50
2022-10-05T00:57:06.458Z,5.60
2022-10-05T01:02:37.293Z,5.90
2022-10-05T01:08:03.873Z,6.10
2022-10-05T01:13:21.423Z,6.30
2022-10-05T01:18:38.729Z,6.20
2022-10-05T01:24:03.115Z,5.80
2022-10-05T01:29:20.503Z,6.20
2022-10-05T01:34:31.175Z,6.20
2022-10-05T01:39:52.236Z,6.40
2022-10-05T01:45:08.862Z,6.10
2022-10-05T01:50:22.983Z,5.90
2022-10-05T01:55:41.457Z,6.30
2022-10-05T02:00:53.649Z,6.20
2022-10-05T02:06:10.325Z,6.80
2022-10-05T02:16:27.479Z,7.20
2022-10-05T02:21:34.330Z,6.60
2022-10-05T02:26:39.921Z,6.30
2022-10-05T02:32:00.650Z,6.40
2022-10-05T02:37:15.558Z,6.60
2022-10-05T02:42:33.097Z,6.90
2022-10-05T02:48:05.364Z,6.60
2022-10-05T02:53:28.249Z,6.40
2022-10-05T02:58:47.598Z,6.70
2022-10-05T03:04:20.462Z,6.80
2022-10-05T03:09:29.122Z,5.10
2022-10-05T03:14:56.249Z,6.80
2022-10-05T03:20:23.326Z,6.60
2022-10-05T03:25:41.635Z,6.20
2022-10-05T03:30:44.270Z,6.80
2022-10-05T03:35:49.767Z,5.40
2022-10-05T03:40:57.094Z,6.50
2022-10-05T03:46:18.782Z,5.80
2022-10-05T03:51:43.520Z,5.90
2022-10-05T03:57:11.686Z,5.50
2022-10-05T04:02:26.639Z,6.90
2022-10-05T04:08:00.570Z,6.70
2022-10-05T04:13:11.426Z,6.50
2022-10-05T04:18:28.904Z,6.30
2022-10-05T04:24:04.130Z,6.50
2022-10-05T04:29:30.004Z,5.00
2022-10-05T04:34:54.533Z,6.60
2022-10-05T04:40:48.538Z,6.10
2022-10-05T04:46:22.369Z,5.20
2022-10-05T04:51:51.987Z,6.80
2022-10-05T04:57:07.180Z,7.00
2022-10-05T05:02:37.718Z,6.50
2022-10-05T05:08:11.232Z,6.10
2022-10-05T05:13:35.768Z,6.10
2022-10-05T05:19:00.335Z,6.40
2022-10-05T05:24:21.565Z,7.00
2022-10-05T05:29:36.280Z,6.60
2022-10-05T05:34:50.074Z,7.60
2022-10-05T05:40:17.823Z,4.90
2022-10-05T05:45:42.060Z,7.50
2022-10-05T05:51:04.063Z,7.80
2022-10-05T05:56:13.911Z,7.40
2022-10-05T06:01:33.359Z,6.80
2022-10-05T06:06:42.501Z,7.10
2022-10-05T06:11:53.175Z,7.90
2022-10-05T06:17:16.332Z,7.70
2022-10-05T06:22:25.726Z,8.70
2022-10-05T06:27:40.831Z,9.10
2022-10-05T06:33:02.061Z,7.00
2022-10-05T06:38:25.961Z,7.70
2022-10-05T06:43:35.811Z,8.40
2022-10-05T06:48:44.588Z,8.10
2022-10-05T06:53:47.354Z,9.10
2022-10-05T06:59:05.557Z,9.70
2022-10-05T07:05:00.781Z,8.10
2022-10-05T07:10:37.878Z,8.60
2022-10-05T07:16:06.315Z,7.50
2022-10-05T07:21:39.564Z,8.20
2022-10-05T07:27:05.631Z,8.90
2022-10-05T07:32:22.288Z,8.70
2022-10-05T07:37:55.603Z,8.10
2022-10-05T07:43:17.441Z,7.30
2022-10-05T07:48:33.288Z,8.10
2022-10-05T07:53:45.910Z,6.20
2022-10-05T07:59:01.774Z,7.10
2022-10-05T08:04:40.760Z,7.50
2022-10-05T08:09:58.665Z,7.10
2022-10-05T08:15:15.636Z,7.00
2022-10-05T08:20:29.933Z,7.20
2022-10-05T08:26:11.585Z,6.80
2022-10-05T08:31:22.978Z,6.40
2022-10-05T08:36:36.471Z,7.70
2022-10-05T08:42:33.137Z,6.50
2022-10-05T08:47:54.639Z,6.00
2022-10-05T08:53:28.655Z,6.10
2022-10-05T08:58:57.547Z,7.10
2022-10-05T09:04:13.740Z,7.20
2022-10-05T09:09:51.993Z,6.70
2022-10-05T09:15:30.222Z,6.60
2022-10-05T09:20:59.543Z,6.70
2022-10-05T09:26:12.658Z,6.40
2022-10-05T09:31:40.798Z,5.70
2022-10-05T09:37:03.702Z,6.20
2022-10-05T09:42:12.585Z,6.10
2022-10-05T09:47:26.205Z,5.40
2022-10-05T09:52:38.498Z,6.40
2022-10-05T09:58:04.610Z,6.70
2022-10-05T10:03:26.363Z,6.90
2022-10-05T10:08:48.341Z,6.80
2022-10-05T10:14:20.405Z,6.10
2022-10-05T10:19:44.345Z,6.00
2022-10-05T10:25:21.472Z,6.20
2022-10-05T10:30:43.604Z,6.30
2022-10-05T10:36:27.592Z,6.10
2022-10-05T10:41:59.016Z,5.40
2022-10-05T10:47:32.964Z,5.30
2022-10-05T10:52:44.471Z,5.60
2022-10-05T10:58:24.519Z,5.10
2022-10-05T11:03:36.619Z,4.30
2022-10-05T11:09:17.777Z,5.20
2022-10-05T11:14:33.403Z,5.10
2022-10-05T11:20:07.076Z,5.60
2022-10-05T11:25:15.604Z,4.10
2022-10-05T11:31:00.118Z,4.80
2022-10-05T11:36:22.049Z,5.10
2022-10-05T11:41:41.527Z,4.80
2022-10-05T11:46:59.483Z,3.70
2022-10-05T11:52:12.625Z,5.00
2022-10-05T11:57:26.773Z,4.60
2022-10-05T12:03:12.173Z,4.40
2022-10-05T12:08:36.567Z,4.50
2022-10-05T12:13:52.178Z,4.10
2022-10-05T12:19:01.310Z,3.90
2022-10-05T12:24:09.936Z,4.20
2022-10-05T12:29:23.801Z,3.90
2022-10-05T12:34:32.512Z,5.00
2022-10-05T12:39:54.085Z,4.90
2022-10-05T12:45:23.594Z,4.90
2022-10-05T12:50:34.612Z,4.90
2022-10-05T12:56:01.084Z,4.00
2022-10-05T13:01:34.320Z,3.90
2022-10-05T13:06:55.519Z,4.90
2022-10-05T13:12:09.641Z,4.80
2022-10-05T13:17:31.417Z,5.10
2022-10-05T13:22:42.662Z,4.70
2022-10-05T13:31:40.305Z,4.50
2022-10-05T13:36:48.790Z,5.30
2022-10-05T13:42:03.363Z,4.80
2022-10-05T13:47:39.031Z,4.80
2022-10-05T13:52:50.379Z,4.60
2022-10-05T13:58:05.858Z,4.80
2022-10-05T14:03:31.460Z,4.70
2022-10-05T14:08:45.570Z,4.70
2022-10-05T14:13:49.880Z,4.70
2022-10-05T14:19:23.833Z,4.70
2022-10-05T14:24:46.382Z,5.40
2022-10-05T14:30:23.786Z,5.50
2022-10-05T14:35:43.683Z,5.10
2022-10-05T14:41:06.539Z,5.30
2022-10-05T14:46:23.184Z,4.80
2022-10-05T14:51:33.708Z,5.10
2022-10-05T14:57:10.131Z,5.30
2022-10-05T15:02:31.880Z,5.40
2022-10-05T15:07:41.886Z,6.10
2022-10-05T15:12:48.558Z,6.10
2022-10-05T15:17:57.819Z,6.00
2022-10-05T15:23:09.872Z,6.50
2022-10-05T15:28:28.004Z,5.90
2022-10-05T15:33:37.972Z,7.30
2022-10-05T15:39:02.014Z,6.00
2022-10-05T15:44:44.246Z,6.20
2022-10-05T15:50:24.718Z,6.80
2022-10-05T15:55:41.657Z,6.00
2022-10-05T16:01:04.556Z,6.00
2022-10-05T16:06:47.533Z,6.40
2022-10-05T16:12:12.871Z,6.60
2022-10-05T16:17:27.605Z,8.10
2022-10-05T16:22:59.796Z,6.90
2022-10-05T16:28:36.072Z,6.50
2022-10-05T16:34:10.033Z,7.20
2022-10-05T16:39:40.881Z,6.70
2022-10-05T16:44:56.243Z,6.80
2022-10-05T16:50:07.187Z,6.80
2022-10-05T16:55:25.666Z,6.10
2022-10-05T17:00:52.027Z,6.60
2022-10-05T17:06:19.713Z,7.10
2022-10-05T17:11:53.006Z,7.40
2022-10-05T17:17:15.961Z,7.20
2022-10-05T17:22:47.726Z,6.90
2022-10-05T17:27:53.223Z,7.90
2022-10-05T17:32:57.929Z,7.10
2022-10-05T17:38:08.927Z,7.10
2022-10-05T17:43:16.930Z,6.20
2022-10-05T17:48:38.639Z,6.10
2022-10-05T17:54:03.154Z,6.70
2022-10-05T17:59:07.455Z,6.40
2022-10-05T18:04:13.264Z,6.70
2022-10-05T18:09:22.489Z,6.50
2022-10-05T18:14:26.402Z,6.40
2022-10-05T18:19:33.603Z,6.30
2022-10-05T18:25:09.352Z,7.20
2022-10-05T18:30:24.960Z,7.30
2022-10-05T18:35:38.093Z,7.90
2022-10-05T18:41:09.315Z,7.30
2022-10-05T18:46:41.002Z,7.60
2022-10-05T18:51:55.507Z,6.60
2022-10-05T18:57:07.687Z,7.30
2022-10-05T19:02:36.549Z,7.30
2022-10-05T19:07:59.499Z,7.10
2022-10-05T19:13:23.418Z,6.80
2022-10-05T19:18:41.708Z,7.30
2022-10-05T19:24:02.420Z,7.50
2022-10-05T19:29:22.822Z,6.60
2022-10-05T19:34:43.885Z,6.90
2022-10-05T19:40:05.871Z,7.00
2022-10-05T19:45:29.894Z,7.10
2022-10-05T19:50:34.924Z,6.50
2022-10-05T19:55:43.681Z,6.60
2022-10-05T20:01:01.644Z,6.90
2022-10-05T20:06:06.872Z,7.50
2022-10-05T20:11:17.304Z,7.30
2022-10-05T20:16:49.207Z,6.70
2022-10-05T20:21:59.273Z,7.90
2022-10-05T20:27:06.548Z,7.40
2022-10-05T20:32:16.177Z,7.50
2022-10-05T20:37:20.308Z,7.50
2022-10-05T20:42:23.968Z,7.50
2022-10-05T20:47:27.090Z,7.70
2022-10-05T20:52:31.469Z,6.90
2022-10-05T20:57:34.314Z,6.80
2022-10-05T21:02:38.204Z,7.60
2022-10-05T21:07:41.022Z,6.80
2022-10-05T21:12:43.816Z,7.60
2022-10-05T21:17:46.575Z,7.90
2022-10-05T21:22:50.001Z,7.60
2022-10-05T21:27:52.813Z,8.00
2022-10-05T21:32:55.747Z,8.20
2022-10-05T21:37:58.559Z,7.80
2022-10-05T21:43:01.340Z,7.60
2022-10-05T21:48:05.094Z,8.10
2022-10-05T21:53:12.322Z,8.50
2022-10-05T21:58:16.773Z,8.30
2022-10-05T22:03:19.865Z,8.30
2022-10-05T22:08:25.825Z,7.80
2022-10-05T22:13:40.983Z,7.80
2022-10-05T22:18:44.497Z,7.90
2022-10-05T22:23:47.829Z,7.80
2022-10-05T22:28:55.547Z,8.20
2022-10-05T22:33:58.253Z,8.30
2022-10-05T22:39:01.091Z,8.50
2022-10-05T22:44:04.502Z,7.80
2022-10-05T22:49:07.365Z,8.20
2022-10-05T22:54:10.154Z,8.30
2022-10-05T22:59:12.971Z,8.40
2022-10-05T23:04:15.661Z,7.90
2022-10-05T23:09:18.439Z,8.50
2022-10-05T23:14:21.412Z,7.30
2022-10-05T23:19:24.295Z,8.70
2022-10-05T23:24:27.122Z,9.20
2022-10-05T23:29:29.907Z,8.70
2022-10-05T23:34:32.704Z,8.70
2022-10-05T23:39:35.427Z,8.10
2022-10-05T23:44:38.104Z,8.20
2022-10-05T23:49:40.922Z,8.40
2022-10-05T23:54:43.727Z,9.10
2022-10-05T23:59:50.248Z,9.10
